Time;durP1;ratioP1;P1;durP2;ratioP2;P2;SDS_P1;SDS_P2;PMS_P1;PMS_P2;Temp;Humidity;BMP_temperature;BMP_pressure;BME280_temperature;BME280_humidity;BME280_pressure;Samples;Min_cycle;Max_cycle;Signal;HPM_P1;HPM_P2
2024/03/10 00:01:42;;;;;;;11.90;8.43;;;12.60;92.20;;;;;;4942056;29;20434;-29
2024/03/10 00:04:08;;;;;;;10.43;8.57;;;12.60;92.20;;;;;;4924765;29;20428;-29
2024/03/10 00:06:41;;;;;;;11.20;8.47;;;12.60;92.20;;;;;;4923605;29;20448;-32
2024/03/10 00:09:08;;;;;;;13.40;9.20;;;12.50;92.20;;;;;;4910020;29;20491;-28
2024/03/10 00:11:34;;;;;;;9.57;8.57;;;12.50;92.30;;;;;;4908739;29;20919;-33
2024/03/10 00:14:04;;;;;;;11.30;8.50;;;12.50;92.30;;;;;;4924327;29;20471;-30
2024/03/10 00:16:31;;;;;;;11.63;8.90;;;12.50;92.30;;;;;;4925074;29;20447;-30
2024/03/10 00:19:03;;;;;;;13.37;9.20;;;12.40;92.30;;;;;;4943247;29;20545;-33
2024/03/10 00:21:29;;;;;;;11.83;9.23;;;12.50;92.30;;;;;;4942490;29;20429;-32
2024/03/10 00:24:00;;;;;;;11.73;9.20;;;12.50;92.30;;;;;;4924941;29;20864;-31
2024/03/10 00:26:27;;;;;;;12.77;9.03;;;12.50;92.30;;;;;;4924732;29;20512;-30
2024/03/10 00:28:53;;;;;;;12.63;9.40;;;12.50;92.30;;;;;;4908656;29;20518;-30
2024/03/10 00:31:19;;;;;;;12.43;9.23;;;12.40;92.20;;;;;;4924805;29;20452;-28
2024/03/10 00:33:52;;;;;;;12.50;9.47;;;12.40;92.20;;;;;;4943373;29;21026;-27
2024/03/10 00:36:20;;;;;;;13.30;8.90;;;12.40;92.10;;;;;;4924874;29;20976;-32
2024/03/10 00:38:46;;;;;;;12.10;9.73;;;12.40;92.10;;;;;;4924856;29;20514;-28
2024/03/10 00:41:13;;;;;;;10.83;9.40;;;12.40;92.10;;;;;;4924875;29;20549;-28
2024/03/10 00:43:40;;;;;;;14.13;10.40;;;12.40;92.20;;;;;;4925272;29;20510;-30
2024/03/10 00:46:08;;;;;;;15.53;9.30;;;12.40;92.60;;;;;;4943296;28;20942;-30
2024/03/10 00:48:35;;;;;;;11.40;8.80;;;12.40;92.20;;;;;;4944624;29;20970;-29
2024/03/10 00:51:01;;;;;;;12.70;9.27;;;12.40;92.30;;;;;;4927487;29;20451;-29
2024/03/10 00:53:27;;;;;;;13.00;9.37;;;12.40;92.30;;;;;;4927138;29;20427;-27
2024/03/10 00:55:54;;;;;;;12.70;9.40;;;12.30;92.30;;;;;;4925025;29;20451;-28
2024/03/10 00:58:22;;;;;;;12.57;9.33;;;12.40;92.40;;;;;;4941844;29;21065;-32
2024/03/10 01:00:50;;;;;;;13.40;10.13;;;12.30;92.30;;;;;;4941362;29;20833;-30
2024/03/10 01:03:18;;;;;;;13.57;9.77;;;12.30;92.30;;;;;;4941529;29;20995;-26
2024/03/10 01:05:46;;;;;;;12.53;8.90;;;12.30;92.70;;;;;;4941228;28;21016;-30
2024/03/10 01:08:14;;;;;;;11.83;9.90;;;12.30;92.40;;;;;;4941288;28;20415;-31
2024/03/10 01:10:41;;;;;;;12.87;9.47;;;12.30;92.30;;;;;;4944761;29;20532;-30
2024/03/10 01:13:07;;;;;;;13.00;8.90;;;12.30;92.40;;;;;;4927787;29;20423;-35
2024/03/10 01:15:35;;;;;;;12.07;8.80;;;12.30;92.40;;;;;;4928107;29;20947;-30
2024/03/10 01:18:04;;;;;;;13.50;10.13;;;12.30;92.40;;;;;;4945115;29;20473;-29
2024/03/10 01:20:30;;;;;;;11.67;9.27;;;12.30;92.50;;;;;;4927533;29;20415;-33
2024/03/10 01:23:03;;;;;;;11.97;8.87;;;12.30;92.50;;;;;;4944843;29;20427;-30
2024/03/10 01:25:31;;;;;;;13.73;9.87;;;12.30;92.50;;;;;;4945130;28;20509;-32
2024/03/10 01:27:57;;;;;;;13.60;10.60;;;12.30;92.40;;;;;;4927711;29;20547;-31
2024/03/10 01:30:25;;;;;;;14.53;9.47;;;12.20;92.40;;;;;;4945680;29;20419;-34
2024/03/10 01:32:51;;;;;;;13.90;10.30;;;12.30;92.50;;;;;;4944210;29;20525;-28
2024/03/10 01:35:17;;;;;;;12.33;9.67;;;12.20;92.40;;;;;;4927878;29;20478;-33
2024/03/10 01:37:44;;;;;;;12.30;10.17;;;12.20;92.40;;;;;;4943719;29;20470;-29
2024/03/10 01:40:11;;;;;;;13.87;10.10;;;12.20;92.40;;;;;;4927102;29;21351;-31
2024/03/10 01:42:37;;;;;;;11.93;10.37;;;12.20;92.40;;;;;;4944564;29;20469;-30
2024/03/10 01:45:04;;;;;;;12.30;9.23;;;12.20;92.40;;;;;;4927129;28;20520;-30
2024/03/10 01:47:30;;;;;;;11.47;10.07;;;12.20;92.30;;;;;;4944705;29;20423;-29
2024/03/10 01:50:00;;;;;;;13.53;10.70;;;12.10;92.20;;;;;;4944866;29;20416;-29
2024/03/10 01:52:27;;;;;;;14.17;11.07;;;12.10;92.20;;;;;;4927206;29;21269;-29
2024/03/10 01:54:56;;;;;;;12.00;9.50;;;12.10;92.20;;;;;;4927063;28;20415;-31
2024/03/10 01:57:22;;;;;;;11.40;9.90;;;12.10;92.20;;;;;;4945207;29;20998;-34
2024/03/10 01:59:53;;;;;;;13.90;11.50;;;12.10;92.20;;;;;;4944879;29;20454;-31
2024/03/10 02:02:22;;;;;;;11.27;9.60;;;12.10;92.30;;;;;;4926358;29;20435;-29
2024/03/10 02:04:57;;;;;;;14.13;10.50;;;12.10;92.20;;;;;;4926739;28;20454;-30
2024/03/10 02:07:28;;;;;;;15.83;10.83;;;12.10;92.20;;;;;;4927653;29;20506;-27
2024/03/10 02:09:55;;;;;;;13.47;10.20;;;12.10;92.30;;;;;;4943082;29;20419;-33
2024/03/10 02:12:24;;;;;;;13.77;9.60;;;12.10;92.30;;;;;;4924856;29;21104;-29
2024/03/10 02:15:00;;;;;;;13.37;9.90;;;12.10;92.30;;;;;;4925409;28;20429;-29
2024/03/10 02:17:27;;;;;;;12.73;10.50;;;12.10;92.40;;;;;;4909777;29;20424;-30
2024/03/10 02:19:57;;;;;;;11.27;9.53;;;12.10;92.40;;;;;;4943431;28;20490;-31
2024/03/10 02:22:28;;;;;;;11.20;9.13;;;12.10;92.40;;;;;;4924890;29;20416;-35
2024/03/10 02:24:59;;;;;;;13.70;10.10;;;12.10;92.40;;;;;;4894951;28;20451;-33
2024/03/10 02:27:26;;;;;;;12.23;10.27;;;12.10;92.50;;;;;;4943924;29;20986;-30
2024/03/10 02:47:13;;;;;;;14.97;11.13;;;12.00;92.30;;;;;;4943102;28;20441;-28
2024/03/10 02:49:43;;;;;;;14.30;10.40;;;12.00;92.30;;;;;;4911028;29;20431;-27
2024/03/10 02:52:13;;;;;;;13.13;9.50;;;12.00;92.40;;;;;;4926436;29;20424;-30
2024/03/10 02:54:39;;;;;;;14.70;10.47;;;12.00;92.30;;;;;;4926559;29;20438;-30
2024/03/10 02:57:06;;;;;;;14.50;10.93;;;11.90;92.20;;;;;;4943933;28;20443;-30
2024/03/10 02:59:32;;;;;;;10.90;8.80;;;11.90;92.20;;;;;;4943402;29;20816;-28
2024/03/10 03:01:58;;;;;;;14.20;10.53;;;11.90;92.30;;;;;;4910164;29;20426;-27
2024/03/10 03:04:26;;;;;;;13.90;10.40;;;11.90;92.30;;;;;;4944983;29;20411;-29
2024/03/10 03:06:53;;;;;;;13.80;10.97;;;11.90;92.40;;;;;;4910577;29;20447;-29
2024/03/10 03:09:21;;;;;;;14.27;10.40;;;11.90;92.40;;;;;;4926711;29;20430;-30
2024/03/10 03:11:47;;;;;;;14.77;10.50;;;11.90;92.40;;;;;;4943938;29;20447;-30
2024/03/10 03:14:14;;;;;;;12.97;10.20;;;11.90;92.40;;;;;;4949423;28;20465;-26
2024/03/10 03:16:42;;;;;;;12.73;9.90;;;11.90;92.50;;;;;;4964030;28;20497;-30
2024/03/10 03:19:13;;;;;;;12.40;9.67;;;11.90;92.40;;;;;;4962631;28;20860;-30
2024/03/10 03:21:42;;;;;;;11.90;9.63;;;11.90;92.40;;;;;;4962608;28;20457;-32
2024/03/10 03:24:09;;;;;;;13.17;10.57;;;12.00;92.50;;;;;;4944706;28;20449;-29
2024/03/10 03:26:38;;;;;;;11.63;9.60;;;11.90;92.40;;;;;;4963542;28;20438;-32
2024/03/10 03:29:10;;;;;;;13.30;10.30;;;11.90;92.40;;;;;;4944725;28;20446;-32
2024/03/10 03:31:42;;;;;;;12.73;10.33;;;11.90;92.40;;;;;;4962277;28;20427;-33
2024/03/10 03:34:09;;;;;;;12.87;10.10;;;11.90;92.40;;;;;;4962695;28;20442;-31
2024/03/10 03:36:37;;;;;;;14.30;10.00;;;11.90;92.30;;;;;;4962834;28;20516;-29
2024/03/10 03:39:06;;;;;;;12.03;9.93;;;11.90;92.30;;;;;;4963115;28;20466;-27
2024/03/10 03:41:34;;;;;;;11.13;9.47;;;11.90;92.20;;;;;;4945698;28;20465;-28
2024/03/10 03:44:04;;;;;;;11.60;8.77;;;11.90;92.20;;;;;;4962699;28;20466;-29
2024/03/10 03:46:32;;;;;;;12.97;10.30;;;11.80;92.10;;;;;;4963428;28;20466;-31
2024/03/10 03:48:58;;;;;;;16.50;10.93;;;11.80;92.10;;;;;;4963418;28;20469;-33
2024/03/10 03:51:30;;;;;;;13.27;10.20;;;11.80;92.10;;;;;;4945900;28;20234;-31
2024/03/10 03:53:56;;;;;;;12.20;9.63;;;11.80;92.20;;;;;;4963095;28;20419;-32
2024/03/10 03:56:22;;;;;;;13.77;9.93;;;11.80;92.10;;;;;;4945373;28;20992;-28
2024/03/10 03:58:51;;;;;;;14.63;10.30;;;11.80;92.10;;;;;;4962814;28;20474;-29
2024/03/10 04:01:21;;;;;;;13.20;10.37;;;11.80;92.10;;;;;;4940544;29;20527;-30
2024/03/10 04:03:50;;;;;;;13.23;10.13;;;11.80;92.10;;;;;;4943589;29;20542;-28
2024/03/10 04:06:18;;;;;;;13.70;9.63;;;11.80;92.10;;;;;;4944858;28;20458;-31
2024/03/10 04:08:45;;;;;;;11.23;10.00;;;11.80;92.10;;;;;;4928163;29;20423;-29
2024/03/10 04:11:13;;;;;;;11.87;9.80;;;11.80;92.10;;;;;;4929806;29;20704;-32
2024/03/10 04:13:40;;;;;;;13.93;10.50;;;11.70;92.00;;;;;;4946581;29;20440;-29
2024/03/10 04:16:10;;;;;;;12.73;10.40;;;11.70;92.00;;;;;;4945794;28;21028;-29
2024/03/10 04:18:36;;;;;;;12.90;10.30;;;11.70;91.90;;;;;;4926353;29;20475;-29
2024/03/10 04:21:07;;;;;;;12.77;10.33;;;11.70;91.90;;;;;;4926841;29;20954;-36
2024/03/10 04:23:33;;;;;;;14.60;10.50;;;11.70;91.90;;;;;;4942898;29;20431;-34
2024/03/10 04:26:00;;;;;;;13.87;9.83;;;11.70;91.80;;;;;;4926488;29;20451;-31
2024/03/10 04:28:26;;;;;;;13.50;9.70;;;11.70;91.80;;;;;;4943889;29;20451;-26
2024/03/10 04:30:52;;;;;;;13.57;10.70;;;11.70;91.80;;;;;;4926835;29;20427;-28
2024/03/10 04:33:21;;;;;;;15.53;11.43;;;11.70;91.80;;;;;;4925684;29;20470;-34
2024/03/10 04:35:49;;;;;;;15.80;10.30;;;11.70;91.80;;;;;;4926316;29;20448;-27
2024/03/10 04:38:15;;;;;;;13.80;10.13;;;11.70;91.80;;;;;;4926329;29;21021;-28
2024/03/10 04:40:46;;;;;;;12.77;9.70;;;11.60;91.80;;;;;;4925920;29;20440;-32
2024/03/10 04:43:17;;;;;;;12.87;9.53;;;11.70;91.90;;;;;;4944249;28;20489;-31
2024/03/10 04:45:43;;;;;;;12.27;10.17;;;11.60;91.80;;;;;;4944096;28;20485;-31
2024/03/10 04:48:11;;;;;;;12.00;9.80;;;11.60;91.90;;;;;;4926600;29;20825;-30
2024/03/10 04:50:37;;;;;;;13.80;9.90;;;11.70;91.90;;;;;;4927409;29;20548;-32
2024/03/10 04:53:06;;;;;;;14.90;11.30;;;11.60;91.90;;;;;;4928155;29;20470;-33
2024/03/10 04:55:34;;;;;;;14.30;10.63;;;11.60;91.80;;;;;;4944947;28;20454;-30
2024/03/10 04:58:02;;;;;;;13.70;10.50;;;11.60;91.90;;;;;;4942379;28;20596;-29
2024/03/10 05:00:31;;;;;;;13.33;10.03;;;11.70;92.00;;;;;;4927618;28;20427;-29
2024/03/10 05:03:05;;;;;;;12.47;9.67;;;11.60;91.90;;;;;;4940549;28;20443;-29
2024/03/10 05:05:32;;;;;;;12.37;10.20;;;11.60;92.00;;;;;;4942641;28;20439;-29
2024/03/10 05:07:59;;;;;;;14.57;10.07;;;11.50;91.90;;;;;;4922635;29;21506;-29
2024/03/10 05:10:25;;;;;;;10.93;9.80;;;11.60;92.00;;;;;;4940697;29;20431;-29
2024/03/10 05:12:56;;;;;;;12.77;10.10;;;11.60;91.90;;;;;;4945841;28;20677;-29
2024/03/10 05:15:24;;;;;;;11.67;9.30;;;11.60;91.90;;;;;;4914399;28;20457;-32
2024/03/10 05:17:51;;;;;;;12.50;9.90;;;11.60;91.90;;;;;;4923420;28;20507;-29
2024/03/10 05:20:18;;;;;;;12.33;9.53;;;11.60;91.90;;;;;;4943889;28;20435;-29
2024/03/10 05:22:46;;;;;;;11.80;9.67;;;11.60;92.00;;;;;;4908046;28;20955;-28
2024/03/10 05:25:12;;;;;;;12.77;10.40;;;11.60;92.00;;;;;;4926453;28;20514;-29
2024/03/10 05:27:41;;;;;;;12.10;9.90;;;11.60;92.00;;;;;;4940502;28;20536;-30
2024/03/10 05:30:11;;;;;;;14.03;9.90;;;11.50;91.90;;;;;;4940599;28;20510;-29
2024/03/10 05:32:41;;;;;;;11.10;9.17;;;11.50;92.00;;;;;;4939671;28;20560;-29
2024/03/10 05:35:09;;;;;;;14.97;10.90;;;11.50;92.00;;;;;;4941390;28;20438;-28
2024/03/10 05:37:36;;;;;;;11.67;9.43;;;11.40;92.00;;;;;;4924728;28;20466;-29
2024/03/10 05:40:05;;;;;;;13.20;10.60;;;11.50;92.00;;;;;;4924827;28;20566;-28
2024/03/10 05:42:31;;;;;;;12.70;9.63;;;11.50;91.90;;;;;;4924541;29;21001;-29
2024/03/10 05:45:00;;;;;;;12.83;9.10;;;11.50;91.80;;;;;;4941399;28;20431;-28
2024/03/10 05:47:29;;;;;;;14.07;10.17;;;11.50;91.80;;;;;;4944570;28;20518;-29
2024/03/10 05:50:00;;;;;;;12.63;9.80;;;11.50;91.90;;;;;;4927951;28;21310;-31
2024/03/10 05:52:26;;;;;;;12.80;9.80;;;11.50;91.90;;;;;;4945882;28;20521;-29
2024/03/10 05:54:52;;;;;;;11.50;9.53;;;11.50;91.90;;;;;;4940714;28;20427;-29
2024/03/10 05:57:19;;;;;;;11.70;9.57;;;11.50;91.90;;;;;;4925940;29;20459;-29
2024/03/10 05:59:47;;;;;;;14.20;10.40;;;11.50;91.90;;;;;;4926262;28;20477;-31
2024/03/10 06:02:13;;;;;;;14.30;11.20;;;11.50;91.80;;;;;;4927887;28;20434;-29
2024/03/10 06:04:40;;;;;;;12.20;9.77;;;11.50;91.80;;;;;;4942762;28;20519;-28
2024/03/10 06:07:07;;;;;;;12.50;10.53;;;11.50;91.80;;;;;;4926998;28;20558;-28
2024/03/10 06:09:36;;;;;;;12.83;10.90;;;11.40;91.60;;;;;;4942741;28;20849;-29
2024/03/10 06:12:06;;;;;;;13.47;10.87;;;11.90;91.90;;;;;;4914954;28;20433;-28
2024/03/10 06:14:36;;;;;;;11.93;9.50;;;11.40;91.70;;;;;;4927651;28;20526;-29
2024/03/10 06:17:05;;;;;;;13.07;10.73;;;11.30;91.60;;;;;;4941576;28;20447;-30
2024/03/10 06:27:45;;;;;;;13.37;10.07;;;11.40;91.60;;;;;;4940375;28;20435;-29
2024/03/10 06:30:11;;;;;;;12.07;9.67;;;11.30;91.60;;;;;;4927370;28;20439;-29
2024/03/10 06:32:40;;;;;;;13.47;10.57;;;11.30;91.70;;;;;;4941804;28;20546;-29
2024/03/10 06:35:07;;;;;;;12.77;10.33;;;11.30;91.70;;;;;;4920353;28;20455;-29
2024/03/10 06:37:33;;;;;;;12.23;9.80;;;11.30;91.70;;;;;;4907993;28;20455;-29
2024/03/10 06:40:00;;;;;;;12.60;10.47;;;11.30;91.70;;;;;;4941529;28;20482;-29
2024/03/10 06:42:26;;;;;;;13.60;10.10;;;11.30;91.60;;;;;;4926298;28;20482;-28
2024/03/10 06:44:52;;;;;;;13.93;10.67;;;11.30;91.60;;;;;;4924283;28;21145;-29
2024/03/10 06:47:20;;;;;;;12.93;9.30;;;11.30;91.60;;;;;;4924245;29;20443;-28
2024/03/10 06:49:47;;;;;;;14.33;9.67;;;11.20;91.40;;;;;;4941172;28;20839;-29
2024/03/10 06:52:13;;;;;;;15.53;10.17;;;11.30;91.80;;;;;;4939978;28;21287;-29
2024/03/10 06:54:43;;;;;;;13.73;10.60;;;11.30;91.60;;;;;;4940745;28;20431;-29
2024/03/10 06:57:09;;;;;;;11.80;9.73;;;11.30;91.60;;;;;;4919253;29;20836;-28
2024/03/10 06:59:38;;;;;;;15.57;10.40;;;11.30;91.60;;;;;;4912650;29;20471;-29
2024/03/10 07:02:11;;;;;;;11.10;9.67;;;11.30;91.60;;;;;;4940694;28;20439;-29
2024/03/10 07:04:40;;;;;;;12.37;9.63;;;11.30;91.60;;;;;;4939374;28;20431;-29
2024/03/10 07:07:08;;;;;;;13.73;10.50;;;11.30;91.60;;;;;;4939289;28;20451;-28
2024/03/10 07:09:35;;;;;;;13.17;10.03;;;11.30;91.60;;;;;;4945102;28;20434;-28
2024/03/10 07:12:04;;;;;;;12.90;9.33;;;11.40;91.60;;;;;;4945580;28;20523;-28
2024/03/10 07:14:30;;;;;;;15.60;9.70;;;11.30;91.60;;;;;;4925403;28;20431;-29
2024/03/10 07:16:57;;;;;;;13.73;10.03;;;11.30;91.70;;;;;;4941378;28;20466;-28
2024/03/10 07:19:23;;;;;;;11.27;9.40;;;11.30;91.70;;;;;;4942051;28;21194;-28
2024/03/10 07:21:50;;;;;;;11.70;9.80;;;11.30;91.60;;;;;;4926648;29;20431;-29
2024/03/10 07:24:16;;;;;;;12.50;9.40;;;11.20;91.70;;;;;;4939666;28;20494;-28
2024/03/10 07:26:43;;;;;;;13.40;10.27;;;11.30;91.70;;;;;;4939259;28;20447;-28
2024/03/10 07:29:11;;;;;;;12.33;8.87;;;11.30;92.00;;;;;;4922319;28;20458;-28
2024/03/10 07:31:38;;;;;;;9.60;8.60;;;11.20;91.60;;;;;;4943277;28;20529;-30
2024/03/10 07:34:07;;;;;;;9.57;8.37;;;11.20;91.70;;;;;;4924985;28;21362;-28
2024/03/10 07:36:35;;;;;;;12.37;10.20;;;11.20;92.10;;;;;;4921600;29;20607;-29
2024/03/10 07:39:02;;;;;;;13.27;10.23;;;11.20;91.80;;;;;;4922924;28;21109;-29
2024/03/10 07:41:28;;;;;;;11.70;9.40;;;11.20;91.80;;;;;;4907522;29;20435;-28
2024/03/10 07:43:54;;;;;;;14.33;10.27;;;11.20;91.70;;;;;;4922258;28;20438;-28
2024/03/10 07:46:22;;;;;;;12.90;10.40;;;11.30;91.80;;;;;;4941659;28;20443;-28
2024/03/10 07:48:49;;;;;;;10.80;9.50;;;11.20;91.70;;;;;;4939651;28;20735;-28
2024/03/10 07:51:17;;;;;;;13.03;9.23;;;11.20;91.60;;;;;;4924350;29;20443;-28
2024/03/10 07:53:43;;;;;;;12.47;9.67;;;11.20;91.70;;;;;;4938561;28;20430;-28
2024/03/10 07:56:09;;;;;;;10.83;9.10;;;11.20;91.60;;;;;;4940160;28;21293;-28
2024/03/10 07:58:35;;;;;;;11.87;9.93;;;11.20;91.70;;;;;;4940395;28;20470;-28
2024/03/10 08:01:01;;;;;;;11.17;9.17;;;11.20;91.70;;;;;;4940128;28;21351;-28
2024/03/10 08:03:28;;;;;;;13.40;9.90;;;11.20;91.70;;;;;;4906331;28;21017;-28
2024/03/10 08:05:55;;;;;;;16.50;10.70;;;11.10;91.70;;;;;;4922002;29;20585;-28
2024/03/10 08:08:24;;;;;;;12.73;9.27;;;11.20;91.70;;;;;;4944235;28;20924;-28
2024/03/10 08:10:50;;;;;;;13.80;10.40;;;11.20;91.80;;;;;;4940382;28;20458;-28
2024/03/10 08:13:18;;;;;;;12.13;9.77;;;11.20;91.70;;;;;;4921314;28;20432;-27
2024/03/10 08:15:47;;;;;;;12.53;9.90;;;11.20;91.60;;;;;;4939652;28;20466;-28
2024/03/10 08:18:13;;;;;;;11.47;10.10;;;11.20;92.00;;;;;;4943654;28;20463;-28
2024/03/10 08:20:40;;;;;;;12.57;9.97;;;11.20;91.60;;;;;;4939680;28;20431;-30
2024/03/10 08:23:07;;;;;;;12.80;10.07;;;11.20;91.70;;;;;;4924729;28;20474;-29
2024/03/10 08:25:35;;;;;;;11.90;9.90;;;11.20;91.70;;;;;;4939732;28;20502;-28
2024/03/10 08:28:04;;;;;;;13.50;10.67;;;11.20;91.70;;;;;;4935571;28;20800;-27
2024/03/10 08:30:33;;;;;;;10.80;8.93;;;11.20;91.70;;;;;;4945755;28;20437;-28
2024/03/10 08:33:01;;;;;;;12.07;9.30;;;11.10;91.70;;;;;;4920576;28;20432;-28
2024/03/10 08:35:32;;;;;;;13.97;9.80;;;11.10;91.70;;;;;;4928116;29;20977;-27
2024/03/10 08:37:59;;;;;;;27.77;13.53;;;11.20;91.70;;;;;;4936964;28;20434;-28
2024/03/10 08:40:32;;;;;;;17.30;10.60;;;11.20;91.80;;;;;;4941395;28;20431;-27
2024/03/10 08:42:58;;;;;;;32.37;11.53;;;11.20;91.90;;;;;;4941076;28;20423;-26
2024/03/10 08:45:28;;;;;;;23.10;13.17;;;11.20;91.90;;;;;;4927258;28;20455;-27
2024/03/10 08:47:56;;;;;;;21.20;12.37;;;11.30;92.00;;;;;;4930451;28;20415;-27
2024/03/10 08:50:22;;;;;;;24.80;11.73;;;11.30;91.70;;;;;;4946103;28;20501;-27
2024/03/10 08:52:48;;;;;;;28.97;13.93;;;11.30;91.60;;;;;;4941971;28;20427;-28
2024/03/10 08:55:16;;;;;;;14.70;12.30;;;11.30;91.00;;;;;;4944242;28;20477;-27
2024/03/10 08:57:44;;;;;;;20.43;11.83;;;11.40;90.70;;;;;;4939488;28;20435;-29
2024/03/10 09:00:13;;;;;;;19.20;12.50;;;11.40;90.50;;;;;;4923618;28;21190;-27
2024/03/10 09:02:40;;;;;;;19.23;13.27;;;11.40;90.90;;;;;;4941977;28;20430;-27
2024/03/10 09:05:07;;;;;;;20.13;12.00;;;11.40;91.50;;;;;;4943161;28;20435;-28
2024/03/10 09:07:34;;;;;;;25.73;13.13;;;11.40;91.70;;;;;;4921373;28;20543;-29
2024/03/10 09:10:00;;;;;;;23.83;12.07;;;11.50;91.80;;;;;;4938983;28;20438;-28
2024/03/10 09:12:29;;;;;;;21.97;13.37;;;11.50;91.90;;;;;;4928014;28;21060;-28
2024/03/10 09:14:55;;;;;;;14.80;11.83;;;11.60;92.10;;;;;;4941457;28;20529;-27
2024/03/10 09:17:21;;;;;;;16.80;12.97;;;11.50;91.00;;;;;;4926948;28;20439;-28
2024/03/10 09:19:47;;;;;;;15.80;11.70;;;11.50;90.10;;;;;;4928547;28;20491;-27
2024/03/10 09:22:17;;;;;;;15.20;11.27;;;11.50;90.00;;;;;;4942690;28;20466;-28
2024/03/10 09:24:46;;;;;;;14.53;11.80;;;11.60;89.50;;;;;;4924374;28;20419;-28
2024/03/10 09:27:19;;;;;;;13.73;11.67;;;11.60;90.10;;;;;;4939587;28;20489;-29
2024/03/10 09:29:47;;;;;;;16.47;11.80;;;11.70;90.00;;;;;;4947187;28;21032;-28
2024/03/10 09:32:19;;;;;;;15.33;11.70;;;11.70;90.20;;;;;;4928525;29;21154;-28
2024/03/10 09:34:46;;;;;;;18.60;11.90;;;11.80;90.50;;;;;;4944269;28;21167;-27
2024/03/10 09:37:12;;;;;;;18.73;11.20;;;11.80;90.70;;;;;;4943529;28;21129;-28
2024/03/10 09:39:38;;;;;;;19.30;11.43;;;11.80;90.60;;;;;;4925946;29;20466;-28
2024/03/10 09:42:06;;;;;;;16.67;11.20;;;11.90;90.60;;;;;;4943156;28;20489;-28
2024/03/10 09:44:33;;;;;;;20.13;11.47;;;11.90;91.20;;;;;;4925184;28;20419;-27
2024/03/10 09:47:06;;;;;;;25.50;11.87;;;12.00;91.20;;;;;;4948325;28;20450;-29
2024/03/10 09:49:32;;;;;;;16.37;11.40;;;12.00;91.40;;;;;;4912631;29;20482;-28
2024/03/10 09:51:59;;;;;;;25.53;11.77;;;12.00;91.50;;;;;;4943645;28;20423;-28
2024/03/10 09:54:27;;;;;;;28.27;13.53;;;12.10;91.00;;;;;;4926244;28;20453;-28
2024/03/10 09:56:55;;;;;;;17.23;10.93;;;12.10;91.30;;;;;;4929011;28;21465;-28
2024/03/10 09:59:44;;;;;;;18.00;11.20;;;12.20;91.20;;;;;;4943356;28;20467;-29
2024/03/10 10:02:29;;;;;;;18.50;10.80;;;12.20;91.20;;;;;;4944540;28;20426;-27
2024/03/10 10:05:03;;;;;;;15.97;11.50;;;12.20;91.40;;;;;;4942195;28;20431;-28
2024/03/10 10:07:32;;;;;;;19.90;11.83;;;12.20;91.40;;;;;;4928306;29;20497;-31
2024/03/10 10:10:01;;;;;;;15.80;11.40;;;12.30;91.30;;;;;;4925081;29;21053;-28
2024/03/10 10:12:30;;;;;;;16.27;10.90;;;12.20;91.00;;;;;;4924572;28;20450;-29
2024/03/10 10:14:56;;;;;;;16.77;11.40;;;12.30;90.90;;;;;;4910931;28;20439;-28
2024/03/10 10:17:26;;;;;;;29.53;12.20;;;12.40;91.10;;;;;;4926309;28;20446;-28
2024/03/10 10:19:51;;;;;;;18.90;12.00;;;12.40;91.50;;;;;;4945780;28;20561;-29
2024/03/10 10:22:20;;;;;;;17.07;11.03;;;12.40;91.60;;;;;;4933003;28;20741;-30
2024/03/10 10:25:12;;;;;;;16.40;11.93;;;12.50;91.50;;;;;;4929587;28;20998;-28
2024/03/10 10:27:49;;;;;;;17.70;12.20;;;12.50;91.50;;;;;;4928970;29;20818;-28
2024/03/10 10:30:21;;;;;;;18.37;12.00;;;12.60;91.50;;;;;;4910647;29;21188;-31
2024/03/10 10:33:06;;;;;;;20.17;14.13;;;12.60;91.30;;;;;;4925813;28;20787;-28
2024/03/10 10:35:42;;;;;;;15.27;11.73;;;12.70;91.30;;;;;;4943887;28;21016;-28
2024/03/10 10:38:12;;;;;;;20.23;11.77;;;12.70;91.70;;;;;;4942076;28;20455;-29
2024/03/10 10:40:51;;;;;;;23.50;13.27;;;12.90;91.60;;;;;;4942468;28;20435;-29
2024/03/10 10:43:17;;;;;;;25.33;12.43;;;12.80;91.30;;;;;;4937870;28;20474;-29
2024/03/10 10:45:44;;;;;;;24.03;13.70;;;12.80;91.30;;;;;;4923972;28;20455;-28
2024/03/10 10:48:13;;;;;;;21.20;14.87;;;12.80;91.10;;;;;;4942647;28;20549;-30
2024/03/10 10:50:42;;;;;;;32.23;13.87;;;12.90;91.20;;;;;;4941424;28;20423;-28
2024/03/10 10:53:12;;;;;;;37.33;15.40;;;12.90;91.30;;;;;;4928607;28;20997;-28
2024/03/10 10:55:39;;;;;;;55.63;19.77;;;13.00;91.50;;;;;;4941781;28;20814;-28
2024/03/10 10:58:07;;;;;;;47.17;20.93;;;13.00;91.10;;;;;;4941607;28;20462;-28
2024/03/10 11:00:34;;;;;;;26.60;18.90;;;13.00;90.40;;;;;;4942169;28;21115;-28
2024/03/10 11:03:16;;;;;;;26.00;19.43;;;13.00;89.40;;;;;;4945259;28;20432;-28
2024/03/10 11:06:08;;;;;;;29.00;21.50;;;13.10;88.10;;;;;;4925578;28;20850;-28
2024/03/10 11:08:41;;;;;;;27.50;21.30;;;13.10;89.20;;;;;;4945719;28;20469;-28
2024/03/10 11:11:14;;;;;;;28.40;22.10;;;13.10;90.50;;;;;;4920292;29;21146;-28
2024/03/10 11:13:40;;;;;;;23.50;20.97;;;13.20;90.20;;;;;;4909398;28;20466;-30
2024/03/10 11:16:14;;;;;;;29.07;20.30;;;13.30;90.30;;;;;;4936662;28;20460;-28
2024/03/10 11:18:44;;;;;;;28.93;21.27;;;13.40;89.90;;;;;;4941692;28;20518;-28
2024/03/10 11:21:17;;;;;;;22.70;18.87;;;13.50;89.40;;;;;;4925435;29;20439;-28
2024/03/10 11:23:50;;;;;;;26.23;19.07;;;13.40;89.50;;;;;;4943161;28;20514;-30
2024/03/10 11:26:25;;;;;;;21.07;17.60;;;13.50;89.70;;;;;;4935016;28;20486;-29
2024/03/10 11:28:56;;;;;;;21.47;17.13;;;13.50;90.10;;;;;;4896947;29;20447;-30
2024/03/10 11:31:26;;;;;;;20.37;16.33;;;13.50;89.50;;;;;;4950317;28;20423;-28
2024/03/10 11:34:03;;;;;;;18.80;16.03;;;13.60;89.20;;;;;;4927889;29;20537;-29
2024/03/10 11:36:36;;;;;;;25.30;16.13;;;13.70;89.10;;;;;;4928124;28;20453;-29
2024/03/10 11:39:04;;;;;;;19.27;13.90;;;13.70;89.10;;;;;;4923354;28;20478;-32
2024/03/10 11:41:31;;;;;;;18.70;14.33;;;13.70;89.10;;;;;;4922967;29;20506;-29
2024/03/10 11:44:00;;;;;;;16.60;13.33;;;13.30;88.20;;;;;;4939975;28;20442;-28
2024/03/10 11:46:33;;;;;;;18.33;13.97;;;13.90;89.10;;;;;;4922797;29;21001;-27
2024/03/10 11:49:01;;;;;;;17.70;13.20;;;13.90;89.20;;;;;;4941941;28;20510;-28
2024/03/10 11:51:34;;;;;;;18.63;14.60;;;14.00;89.80;;;;;;4907559;28;20443;-30
2024/03/10 11:54:07;;;;;;;16.60;13.50;;;14.00;89.70;;;;;;4940011;28;20438;-31
2024/03/10 11:56:34;;;;;;;17.00;13.90;;;14.00;89.80;;;;;;4939900;28;20450;-27
2024/03/10 11:59:03;;;;;;;22.03;15.97;;;14.10;89.40;;;;;;4906212;28;20514;-27
2024/03/10 12:01:30;;;;;;;17.10;13.70;;;14.00;91.20;;;;;;4922608;28;20427;-31
2024/03/10 12:04:05;;;;;;;19.93;17.53;;;14.00;91.00;;;;;;4926070;28;20451;-28
2024/03/10 12:06:34;;;;;;;18.47;16.00;;;14.20;90.70;;;;;;4922624;28;20509;-28
2024/03/10 12:09:00;;;;;;;19.87;14.30;;;14.20;90.30;;;;;;4940257;28;20474;-28
2024/03/10 12:11:29;;;;;;;20.70;15.40;;;14.30;90.10;;;;;;4938234;28;20570;-27
2024/03/10 12:13:55;;;;;;;17.80;14.57;;;14.30;90.30;;;;;;4939846;28;20435;-30
2024/03/10 12:16:22;;;;;;;18.30;14.77;;;14.30;90.40;;;;;;4941511;28;20809;-28
2024/03/10 12:18:48;;;;;;;16.90;13.00;;;14.50;90.40;;;;;;4923237;28;20526;-28
2024/03/10 12:21:15;;;;;;;19.27;14.20;;;14.40;90.10;;;;;;4907587;29;21230;-29
2024/03/10 12:23:42;;;;;;;19.60;14.53;;;14.50;89.90;;;;;;4939698;28;20439;-29
2024/03/10 12:26:11;;;;;;;19.13;15.30;;;14.50;89.70;;;;;;4942896;28;20451;-28
2024/03/10 12:28:47;;;;;;;19.80;15.23;;;14.50;89.50;;;;;;4941443;28;20423;-28
2024/03/10 12:31:15;;;;;;;21.60;15.67;;;14.50;89.40;;;;;;4943339;28;20560;-28
2024/03/10 12:33:46;;;;;;;19.43;15.83;;;14.60;90.10;;;;;;4939710;28;20427;-27
2024/03/10 12:36:12;;;;;;;20.87;15.50;;;14.60;90.00;;;;;;4923374;29;21062;-29
2024/03/10 12:38:42;;;;;;;17.90;15.57;;;14.70;90.00;;;;;;4941498;28;20630;-29
2024/03/10 12:41:12;;;;;;;19.43;15.97;;;14.70;90.10;;;;;;4926661;28;20874;-30
2024/03/10 12:43:41;;;;;;;21.13;15.73;;;14.80;90.00;;;;;;4939763;28;20470;-28
2024/03/10 12:46:17;;;;;;;18.97;15.20;;;14.90;89.70;;;;;;4918278;29;20447;-29
2024/03/10 12:48:45;;;;;;;20.47;16.40;;;14.90;89.70;;;;;;4940131;28;20428;-29
2024/03/10 12:51:15;;;;;;;19.60;15.43;;;15.00;89.30;;;;;;4930796;28;20438;-28
2024/03/10 12:53:41;;;;;;;21.90;16.60;;;15.00;89.10;;;;;;4938324;28;20447;-28
2024/03/10 12:56:13;;;;;;;21.20;18.03;;;15.00;88.70;;;;;;4940022;28;20450;-30
2024/03/10 12:58:45;;;;;;;21.30;17.10;;;14.90;89.80;;;;;;4926282;29;20479;-29
2024/03/10 13:01:12;;;;;;;22.90;18.77;;;14.90;90.10;;;;;;4918514;28;21348;-29
2024/03/10 13:03:38;;;;;;;23.17;17.17;;;15.00;90.00;;;;;;4905523;29;20442;-28